createdAt,value
2023-05-09T00:02:21.059Z,17.10
2023-05-09T00:04:49.407Z,17.00
2023-05-09T00:07:17.748Z,17.00
2023-05-09T00:09:46.113Z,17.00
2023-05-09T00:12:14.449Z,17.00
2023-05-09T00:14:45.464Z,16.90
2023-05-09T00:17:15.825Z,16.80
2023-05-09T00:19:44.668Z,16.80
2023-05-09T00:22:13.599Z,16.80
2023-05-09T00:24:41.930Z,16.80
2023-05-09T00:27:11.006Z,16.80
2023-05-09T00:29:39.595Z,16.60
2023-05-09T00:32:09.329Z,16.70
2023-05-09T00:34:37.877Z,16.60
2023-05-09T00:37:07.121Z,16.70
2023-05-09T00:39:35.451Z,16.70
2023-05-09T00:42:04.853Z,16.60
2023-05-09T00:44:33.212Z,16.60
2023-05-09T00:47:01.582Z,16.60
2023-05-09T00:49:31.494Z,16.60
2023-05-09T00:51:59.981Z,16.50
2023-05-09T00:54:28.334Z,16.40
2023-05-09T00:56:56.790Z,16.40
2023-05-09T00:59:25.355Z,16.40
2023-05-09T01:01:53.693Z,16.30
2023-05-09T01:04:22.052Z,16.30
2023-05-09T01:07:05.362Z,16.40
2023-05-09T01:09:38.947Z,16.40
2023-05-09T01:12:15.045Z,16.40
2023-05-09T01:14:53.252Z,16.40
2023-05-09T01:17:32.668Z,16.50
2023-05-09T01:20:11.159Z,16.50
2023-05-09T01:22:44.582Z,16.50
2023-05-09T01:25:48.409Z,16.50
2023-05-09T01:28:27.330Z,16.40
2023-05-09T01:30:57.766Z,16.40
2023-05-09T01:33:29.192Z,16.40
2023-05-09T01:36:03.417Z,16.50
2023-05-09T01:38:33.268Z,16.50
2023-05-09T01:41:05.369Z,16.50
2023-05-09T01:43:35.658Z,16.60
2023-05-09T01:46:06.939Z,16.50
2023-05-09T01:48:37.346Z,16.40
2023-05-09T01:51:06.574Z,16.50
2023-05-09T01:53:36.107Z,16.40
2023-05-09T01:56:06.977Z,16.40
2023-05-09T01:58:35.710Z,16.40
2023-05-09T02:01:06.594Z,16.40
2023-05-09T02:03:37.381Z,16.30
2023-05-09T02:06:07.059Z,16.30
2023-05-09T02:08:35.706Z,16.30
2023-05-09T02:11:04.146Z,16.20
2023-05-09T02:13:35.268Z,16.20
2023-05-09T02:16:06.008Z,16.20
2023-05-09T02:18:34.411Z,16.20
2023-05-09T02:21:03.022Z,16.20
2023-05-09T02:23:31.923Z,16.10
2023-05-09T02:26:00.354Z,16.00
2023-05-09T02:28:29.830Z,16.00
2023-05-09T02:31:02.078Z,16.00
2023-05-09T02:33:32.404Z,16.00
2023-05-09T02:36:01.770Z,15.90
2023-05-09T02:38:30.055Z,15.90
2023-05-09T02:40:58.358Z,15.80
2023-05-09T02:43:28.332Z,15.90
2023-05-09T02:45:56.827Z,15.90
2023-05-09T02:48:25.394Z,15.90
2023-05-09T02:50:55.078Z,15.90
2023-05-09T02:53:23.485Z,15.90
2023-05-09T02:55:51.815Z,15.90
2023-05-09T02:58:20.156Z,15.90
2023-05-09T03:00:48.626Z,15.70
2023-05-09T03:03:19.103Z,15.70
2023-05-09T03:05:47.738Z,15.70
2023-05-09T03:08:17.369Z,15.70
2023-05-09T03:10:45.956Z,15.70
2023-05-09T03:13:14.798Z,15.70
2023-05-09T03:15:43.121Z,15.80
2023-05-09T03:18:13.999Z,15.80
2023-05-09T03:20:42.385Z,15.80
2023-05-09T03:23:11.159Z,15.80
2023-05-09T03:25:41.985Z,15.90
2023-05-09T03:28:10.428Z,15.80
2023-05-09T03:30:38.912Z,15.80
2023-05-09T03:33:11.113Z,15.80
2023-05-09T03:35:39.516Z,15.70
2023-05-09T03:38:08.711Z,15.80
2023-05-09T03:40:37.039Z,15.70
2023-05-09T03:43:10.847Z,15.70
2023-05-09T03:45:39.545Z,15.70
2023-05-09T03:48:11.410Z,15.70
2023-05-09T03:50:45.188Z,15.70
2023-05-09T03:53:14.915Z,15.60
2023-05-09T03:55:45.221Z,15.50
2023-05-09T03:58:16.654Z,15.50
2023-05-09T04:00:46.745Z,15.40
2023-05-09T04:03:22.572Z,15.30
2023-05-09T04:05:53.152Z,15.30
2023-05-09T04:08:41.763Z,15.30
2023-05-09T04:11:10.168Z,15.30
2023-05-09T04:13:42.076Z,15.40
2023-05-09T04:16:23.287Z,15.40
2023-05-09T04:18:51.682Z,15.40
2023-05-09T04:21:19.975Z,15.40
2023-05-09T04:23:51.566Z,15.40
2023-05-09T04:26:24.801Z,15.50
2023-05-09T04:28:57.585Z,15.60
2023-05-09T04:31:26.644Z,15.60
2023-05-09T04:33:55.558Z,15.50
2023-05-09T04:36:24.142Z,15.50
2023-05-09T04:38:52.449Z,15.60
2023-05-09T04:41:25.549Z,15.60
2023-05-09T04:43:53.879Z,15.70
2023-05-09T04:46:25.732Z,15.70
2023-05-09T04:48:54.438Z,15.60
2023-05-09T04:51:22.807Z,15.60
2023-05-09T04:53:52.661Z,15.60
2023-05-09T04:56:24.416Z,15.50
2023-05-09T04:58:52.869Z,15.50
2023-05-09T05:01:21.373Z,15.50
2023-05-09T05:03:52.394Z,15.60
2023-05-09T05:06:20.957Z,15.70
2023-05-09T05:08:49.289Z,15.70
2023-05-09T05:11:17.974Z,15.80
2023-05-09T05:13:47.214Z,15.90
2023-05-09T05:16:15.701Z,15.90
2023-05-09T05:18:44.064Z,16.00
2023-05-09T05:21:13.852Z,16.10
2023-05-09T05:23:42.762Z,16.30
2023-05-09T05:26:11.979Z,16.40
2023-05-09T05:28:40.506Z,16.50
2023-05-09T05:31:09.033Z,16.60
2023-05-09T05:33:38.042Z,16.60
2023-05-09T05:36:07.223Z,16.70
2023-05-09T05:38:37.132Z,16.80
2023-05-09T05:41:05.794Z,16.90
2023-05-09T05:43:35.429Z,17.00
2023-05-09T05:46:04.911Z,17.10
2023-05-09T05:48:35.298Z,17.20
2023-05-09T05:51:03.995Z,17.30
2023-05-09T05:53:33.695Z,17.40
2023-05-09T05:56:03.446Z,17.50
2023-05-09T05:58:33.706Z,17.40
2023-05-09T06:01:02.137Z,17.40
2023-05-09T06:03:32.556Z,17.40
2023-05-09T06:06:04.250Z,17.60
2023-05-09T06:08:33.454Z,17.70
2023-05-09T06:11:03.528Z,17.70
2023-05-09T06:13:32.020Z,17.70
2023-05-09T06:16:18.752Z,17.80
2023-05-09T06:18:50.163Z,17.80
2023-05-09T06:21:18.604Z,17.80
2023-05-09T06:24:05.124Z,17.90
2023-05-09T06:26:37.322Z,18.10
2023-05-09T06:29:06.357Z,18.30
2023-05-09T06:31:38.427Z,18.30
2023-05-09T06:34:07.165Z,18.40
2023-05-09T06:36:35.916Z,18.60
2023-05-09T06:39:04.424Z,18.80
2023-05-09T06:41:32.940Z,18.90
2023-05-09T06:44:03.251Z,19.30
2023-05-09T06:46:31.570Z,19.80
2023-05-09T06:49:01.769Z,20.10
2023-05-09T06:51:31.126Z,20.40
2023-05-09T06:53:59.499Z,20.50
2023-05-09T06:56:27.912Z,20.60
2023-05-09T06:58:56.262Z,20.80
2023-05-09T07:01:26.027Z,21.00
2023-05-09T07:03:54.393Z,20.80
2023-05-09T07:06:22.754Z,20.80
2023-05-09T07:08:51.041Z,20.80
2023-05-09T07:11:19.609Z,20.80
2023-05-09T07:13:47.926Z,20.90
2023-05-09T07:16:18.023Z,20.60
2023-05-09T07:18:48.575Z,20.50
2023-05-09T07:21:17.118Z,20.50
2023-05-09T07:23:46.203Z,20.50
2023-05-09T07:26:14.691Z,20.40
2023-05-09T07:28:43.073Z,20.50
2023-05-09T07:31:11.419Z,20.50
2023-05-09T07:33:39.759Z,20.70
2023-05-09T07:36:13.137Z,20.90
2023-05-09T07:38:41.531Z,21.00
2023-05-09T07:41:09.939Z,21.10
2023-05-09T07:43:38.365Z,21.20
2023-05-09T07:46:07.800Z,21.00
2023-05-09T07:48:36.429Z,20.80
2023-05-09T07:51:04.841Z,20.90
2023-05-09T07:53:34.569Z,21.30
2023-05-09T07:56:02.930Z,21.90
2023-05-09T07:58:31.252Z,22.80
2023-05-09T08:01:00.179Z,24.60
2023-05-09T08:03:28.521Z,26.60
2023-05-09T08:05:57.192Z,27.40
2023-05-09T08:08:25.827Z,27.30
2023-05-09T08:10:55.527Z,26.50
2023-05-09T08:13:23.997Z,25.10
2023-05-09T08:15:52.398Z,25.00
2023-05-09T08:18:20.990Z,24.30
2023-05-09T08:20:49.354Z,23.80
2023-05-09T08:23:17.662Z,23.10
2023-05-09T08:25:46.009Z,23.50
2023-05-09T08:28:15.755Z,24.10
2023-05-09T08:30:44.096Z,24.50
2023-05-09T08:33:12.452Z,24.40
2023-05-09T08:35:40.890Z,24.30
2023-05-09T08:38:09.203Z,24.30
2023-05-09T08:40:38.077Z,24.30
2023-05-09T08:43:08.627Z,24.40
2023-05-09T08:45:46.950Z,24.50
2023-05-09T08:48:17.392Z,24.80
2023-05-09T08:50:46.384Z,24.80
2023-05-09T08:53:16.231Z,24.90
2023-05-09T08:55:45.919Z,24.50
2023-05-09T08:58:16.774Z,24.40
2023-05-09T09:00:47.221Z,24.10
2023-05-09T09:03:16.330Z,24.20
2023-05-09T09:05:46.243Z,24.40
2023-05-09T09:08:15.410Z,24.30
2023-05-09T09:10:47.430Z,23.40
2023-05-09T09:13:18.060Z,23.10
2023-05-09T09:15:49.940Z,23.70
2023-05-09T09:18:23.204Z,23.90
2023-05-09T09:20:57.626Z,23.80
2023-05-09T09:23:27.238Z,23.50
2023-05-09T09:26:00.239Z,23.40
2023-05-09T09:28:29.486Z,23.40
2023-05-09T09:30:59.337Z,23.40
2023-05-09T09:33:29.812Z,23.40
2023-05-09T09:35:59.360Z,23.70
2023-05-09T09:38:27.987Z,23.90
2023-05-09T09:40:57.071Z,23.30
2023-05-09T09:43:29.325Z,23.10
2023-05-09T09:46:01.997Z,23.30
2023-05-09T09:48:34.765Z,22.50
2023-05-09T09:51:11.406Z,22.70
2023-05-09T09:53:43.516Z,22.60
2023-05-09T09:56:12.176Z,22.50
2023-05-09T09:58:40.846Z,22.70
2023-05-09T10:01:13.970Z,22.80
2023-05-09T10:03:44.295Z,22.60
2023-05-09T10:06:13.551Z,22.80
2023-05-09T10:08:42.212Z,22.60
2023-05-09T10:11:10.952Z,22.50
2023-05-09T10:13:39.561Z,22.90
2023-05-09T10:16:12.563Z,23.00
2023-05-09T10:18:43.467Z,22.90
2023-05-09T10:21:15.013Z,23.30
2023-05-09T10:23:47.141Z,23.40
2023-05-09T10:26:18.738Z,23.90
2023-05-09T10:28:49.825Z,23.40
2023-05-09T10:31:24.334Z,23.20
2023-05-09T10:33:52.991Z,23.30
2023-05-09T10:36:23.898Z,23.50
2023-05-09T10:38:54.938Z,23.90
2023-05-09T10:41:24.177Z,23.90
2023-05-09T10:43:53.236Z,23.70
2023-05-09T10:46:23.958Z,23.10
2023-05-09T10:48:52.666Z,22.80
2023-05-09T10:51:21.636Z,22.90
2023-05-09T10:53:51.626Z,23.40
2023-05-09T10:56:27.612Z,23.40
2023-05-09T10:58:56.547Z,23.70
2023-05-09T11:01:35.338Z,23.60
2023-05-09T11:04:11.076Z,23.10
2023-05-09T11:06:46.338Z,23.50
2023-05-09T11:09:33.494Z,23.90
2023-05-09T11:12:09.896Z,23.30
2023-05-09T11:14:46.324Z,22.70
2023-05-09T11:17:29.630Z,22.40
2023-05-09T11:20:05.602Z,22.10
2023-05-09T11:22:41.508Z,22.20
2023-05-09T11:25:12.662Z,22.30
2023-05-09T11:27:44.448Z,22.30
2023-05-09T11:30:16.835Z,22.10
2023-05-09T11:32:48.600Z,21.90
2023-05-09T11:35:20.321Z,21.90
2023-05-09T11:37:50.642Z,21.90
2023-05-09T11:40:20.367Z,21.90
2023-05-09T11:42:54.687Z,22.10
2023-05-09T11:45:26.930Z,22.30
2023-05-09T11:47:57.498Z,22.50
2023-05-09T11:50:26.338Z,22.40
2023-05-09T11:52:55.267Z,22.50
2023-05-09T11:55:25.526Z,22.50
2023-05-09T11:57:55.293Z,22.30
2023-05-09T12:00:25.038Z,22.30
2023-05-09T12:02:54.315Z,22.20
2023-05-09T12:05:24.711Z,22.00
2023-05-09T12:07:53.415Z,22.00
2023-05-09T12:10:23.953Z,22.10
2023-05-09T12:12:55.559Z,22.00
2023-05-09T12:15:24.543Z,22.10
2023-05-09T12:18:03.905Z,22.20
2023-05-09T12:20:43.433Z,22.10
2023-05-09T12:23:12.781Z,22.00
2023-05-09T12:25:41.854Z,22.20
2023-05-09T12:28:10.949Z,22.20
2023-05-09T12:30:39.474Z,22.50
2023-05-09T12:33:10.934Z,22.50
2023-05-09T12:35:39.536Z,22.60
2023-05-09T12:38:09.285Z,22.60
2023-05-09T12:40:37.685Z,22.40
2023-05-09T12:43:06.232Z,22.40
2023-05-09T12:45:34.808Z,22.40
2023-05-09T12:48:04.750Z,22.50
2023-05-09T12:50:35.534Z,22.60
2023-05-09T12:53:05.289Z,22.60
2023-05-09T12:55:41.045Z,22.50
2023-05-09T12:58:09.427Z,22.40
2023-05-09T13:00:44.659Z,22.60
2023-05-09T13:03:25.307Z,22.80
2023-05-09T13:05:58.037Z,22.80
2023-05-09T13:08:26.661Z,22.60
2023-05-09T13:11:08.014Z,22.70
2023-05-09T13:13:43.842Z,22.90
2023-05-09T13:16:14.913Z,23.00
2023-05-09T13:18:45.079Z,23.00
2023-05-09T13:21:13.495Z,23.20
2023-05-09T13:23:44.204Z,23.20
2023-05-09T13:26:14.124Z,22.90
2023-05-09T13:28:42.537Z,22.90
2023-05-09T13:31:11.028Z,23.10
2023-05-09T13:33:39.720Z,23.00
2023-05-09T13:36:08.437Z,23.20
2023-05-09T13:38:40.478Z,23.20
2023-05-09T13:41:09.232Z,23.60
2023-05-09T13:43:40.335Z,23.70
2023-05-09T13:46:08.936Z,23.80
2023-05-09T13:48:37.781Z,23.50
2023-05-09T13:51:07.908Z,23.20
2023-05-09T13:53:38.668Z,23.10
2023-05-09T13:56:09.392Z,23.20
2023-05-09T13:58:39.269Z,23.20
2023-05-09T14:01:07.819Z,23.10
2023-05-09T14:03:36.437Z,23.20
2023-05-09T14:06:05.365Z,23.10
2023-05-09T14:08:33.724Z,23.20
2023-05-09T14:11:02.989Z,23.10
2023-05-09T14:13:32.054Z,23.10
2023-05-09T14:16:02.078Z,23.10
2023-05-09T14:18:30.512Z,23.10
2023-05-09T14:20:59.034Z,23.20
2023-05-09T14:23:27.610Z,23.30
2023-05-09T14:25:55.991Z,23.40
2023-05-09T14:28:24.342Z,23.40
2023-05-09T14:30:52.925Z,23.40
2023-05-09T14:33:22.813Z,23.30
2023-05-09T14:35:51.278Z,23.10
2023-05-09T14:38:19.899Z,22.80
2023-05-09T14:40:49.372Z,22.60
2023-05-09T14:43:17.742Z,22.60
2023-05-09T14:45:46.051Z,22.70
2023-05-09T14:48:16.162Z,22.70
2023-05-09T14:50:46.012Z,22.60
2023-05-09T14:53:14.556Z,22.70
2023-05-09T14:55:42.962Z,22.90
2023-05-09T14:58:13.385Z,23.10
2023-05-09T15:00:41.957Z,23.10
2023-05-09T15:03:10.870Z,23.00
2023-05-09T15:05:39.540Z,23.00
2023-05-09T15:08:09.691Z,23.00
2023-05-09T15:10:38.062Z,23.00
2023-05-09T15:13:06.442Z,23.10
2023-05-09T15:15:35.008Z,22.70
2023-05-09T15:18:03.416Z,22.50
2023-05-09T15:20:31.758Z,22.70
2023-05-09T15:23:00.174Z,22.80
2023-05-09T15:25:29.979Z,22.90
2023-05-09T15:27:59.392Z,22.90
2023-05-09T15:30:27.925Z,23.10
2023-05-09T15:32:56.744Z,23.10
2023-05-09T15:35:25.184Z,22.90
2023-05-09T15:37:53.798Z,22.40
2023-05-09T15:40:22.188Z,22.30
2023-05-09T15:42:51.985Z,22.30
2023-05-09T15:45:20.543Z,22.40
2023-05-09T15:47:48.987Z,22.20
2023-05-09T15:50:17.796Z,22.10
2023-05-09T15:52:46.387Z,22.00
2023-05-09T15:55:15.124Z,21.90
2023-05-09T15:57:45.201Z,21.80
2023-05-09T16:00:17.546Z,21.80
2023-05-09T16:02:46.583Z,21.80
2023-05-09T16:05:15.019Z,21.70
2023-05-09T16:07:45.894Z,21.60
2023-05-09T16:10:14.623Z,21.50
2023-05-09T16:12:43.324Z,21.50
2023-05-09T16:15:12.694Z,21.50
2023-05-09T16:17:43.515Z,21.50
2023-05-09T16:20:14.495Z,21.60
2023-05-09T16:22:45.898Z,21.60
2023-05-09T16:25:14.218Z,21.60
2023-05-09T16:27:42.586Z,21.50
2023-05-09T16:30:11.857Z,21.50
2023-05-09T16:32:40.220Z,21.40
2023-05-09T16:35:10.646Z,21.30
2023-05-09T16:37:38.992Z,21.30
2023-05-09T16:40:08.531Z,21.40
2023-05-09T16:42:36.876Z,21.40
2023-05-09T16:45:05.815Z,21.30
2023-05-09T16:47:34.201Z,21.20
2023-05-09T16:50:02.642Z,21.10
2023-05-09T16:52:32.410Z,21.00
2023-05-09T16:55:00.880Z,20.90
2023-05-09T16:57:29.214Z,20.80
2023-05-09T16:59:58.543Z,20.70
2023-05-09T17:02:27.595Z,20.70
2023-05-09T17:04:56.302Z,20.70
2023-05-09T17:07:24.699Z,20.70
2023-05-09T17:09:54.395Z,20.50
2023-05-09T17:12:22.820Z,20.50
2023-05-09T17:14:51.242Z,20.50
2023-05-09T17:17:19.572Z,20.50
2023-05-09T17:19:51.195Z,20.40
2023-05-09T17:22:19.616Z,20.50
2023-05-09T17:24:47.933Z,20.40
2023-05-09T17:27:17.935Z,20.40
2023-05-09T17:29:46.328Z,20.20
2023-05-09T17:32:15.599Z,20.10
2023-05-09T17:34:44.039Z,20.10
2023-05-09T17:37:12.587Z,20.10
2023-05-09T17:39:42.586Z,20.10
2023-05-09T17:42:12.736Z,20.10
2023-05-09T17:44:44.279Z,20.00
2023-05-09T17:47:14.266Z,20.00
2023-05-09T17:49:42.697Z,20.00
2023-05-09T17:52:11.061Z,20.00
2023-05-09T17:54:39.471Z,20.10
2023-05-09T17:57:07.912Z,20.00
2023-05-09T17:59:40.371Z,19.90
2023-05-09T18:02:10.096Z,19.80
2023-05-09T18:04:38.424Z,19.80
2023-05-09T18:07:06.721Z,19.70
2023-05-09T18:09:35.011Z,19.60
2023-05-09T18:12:03.579Z,19.60
2023-05-09T18:14:31.915Z,19.50
2023-05-09T18:17:00.262Z,19.50
2023-05-09T18:19:29.913Z,19.50
2023-05-09T18:21:58.275Z,19.50
2023-05-09T18:24:26.615Z,19.40
2023-05-09T18:26:54.978Z,19.40
2023-05-09T18:29:42.251Z,19.30
2023-05-09T18:32:12.038Z,19.20
2023-05-09T18:34:41.779Z,19.00
2023-05-09T18:37:11.657Z,19.00
2023-05-09T18:39:39.974Z,18.90
2023-05-09T18:42:08.331Z,18.90
2023-05-09T18:44:36.656Z,18.80
2023-05-09T18:47:05.044Z,18.80
2023-05-09T18:49:33.451Z,18.80
2023-05-09T18:52:03.567Z,18.80
2023-05-09T18:54:31.958Z,18.80
2023-05-09T18:57:00.311Z,18.80
2023-05-09T18:59:28.768Z,18.70
2023-05-09T19:01:57.126Z,18.70
2023-05-09T19:04:25.730Z,18.70
2023-05-09T19:06:54.150Z,18.60
2023-05-09T19:09:23.896Z,18.60
2023-05-09T19:11:52.302Z,18.60
2023-05-09T19:14:20.736Z,18.60
2023-05-09T19:16:49.059Z,18.60
2023-05-09T19:19:17.628Z,18.50
2023-05-09T19:21:46.758Z,18.50
2023-05-09T19:24:16.393Z,18.60
2023-05-09T19:26:46.281Z,18.60
2023-05-09T19:29:14.645Z,18.50
2023-05-09T19:31:42.979Z,18.30
2023-05-09T19:34:11.481Z,18.30
2023-05-09T19:36:39.878Z,18.30
2023-05-09T19:39:09.068Z,18.30
2023-05-09T19:41:37.478Z,18.30
2023-05-09T19:44:07.991Z,18.20
2023-05-09T19:46:38.465Z,18.20
2023-05-09T19:49:07.266Z,18.20
2023-05-09T19:51:35.585Z,18.20
2023-05-09T19:54:03.989Z,18.20
2023-05-09T19:56:32.553Z,18.10
2023-05-09T19:59:00.872Z,18.10
2023-05-09T20:01:30.582Z,18.00
2023-05-09T20:03:58.956Z,18.00
2023-05-09T20:06:27.286Z,18.00
2023-05-09T20:08:55.609Z,18.00
2023-05-09T20:11:23.932Z,18.00
2023-05-09T20:13:52.216Z,17.90
2023-05-09T20:16:21.330Z,17.90
2023-05-09T20:18:52.274Z,17.90
2023-05-09T20:21:20.672Z,17.90
2023-05-09T20:23:48.988Z,17.90
2023-05-09T20:26:17.353Z,17.80
2023-05-09T20:28:45.681Z,17.80
2023-05-09T20:31:14.064Z,17.80
2023-05-09T20:33:42.432Z,17.80
2023-05-09T20:36:12.169Z,17.80
2023-05-09T20:38:40.404Z,17.80
2023-05-09T20:41:08.723Z,17.80
2023-05-09T20:43:37.053Z,17.80
2023-05-09T20:46:05.393Z,17.80
2023-05-09T20:48:33.725Z,17.80
2023-05-09T20:51:01.975Z,17.80
2023-05-09T20:53:32.481Z,17.80
2023-05-09T20:56:01.055Z,17.70
2023-05-09T20:58:31.175Z,17.60
2023-05-09T21:00:59.767Z,17.60
2023-05-09T21:03:28.132Z,17.60
2023-05-09T21:05:56.485Z,17.50
2023-05-09T21:08:24.809Z,17.60
2023-05-09T21:10:54.680Z,17.60
2023-05-09T21:13:23.058Z,17.60
2023-05-09T21:15:51.615Z,17.60
2023-05-09T21:18:21.320Z,17.60
2023-05-09T21:20:49.585Z,17.60
2023-05-09T21:23:18.493Z,17.60
2023-05-09T21:25:47.015Z,17.60
2023-05-09T21:28:17.398Z,17.60
2023-05-09T21:30:50.881Z,17.60
2023-05-09T21:33:19.343Z,17.60
2023-05-09T21:35:48.006Z,17.70
2023-05-09T21:38:16.280Z,17.70
2023-05-09T21:40:47.091Z,17.70
2023-05-09T21:43:18.216Z,17.60
2023-05-09T21:45:46.669Z,17.60
2023-05-09T21:48:14.948Z,17.50
2023-05-09T21:50:46.007Z,17.10
2023-05-09T21:53:14.274Z,16.90
2023-05-09T21:55:42.479Z,16.70
2023-05-09T21:58:10.833Z,16.50
2023-05-09T22:00:40.538Z,16.30
2023-05-09T22:03:09.039Z,16.30
2023-05-09T22:05:37.271Z,16.30
2023-05-09T22:08:05.930Z,16.30
2023-05-09T22:10:34.234Z,16.20
2023-05-09T22:13:02.601Z,16.20
2023-05-09T22:15:30.892Z,16.20
2023-05-09T22:18:01.220Z,16.20
2023-05-09T22:20:29.654Z,16.10
2023-05-09T22:22:57.889Z,16.10
2023-05-09T22:25:26.357Z,16.20
2023-05-09T22:27:55.422Z,16.20
2023-05-09T22:30:24.085Z,16.10
2023-05-09T22:32:52.377Z,16.10
2023-05-09T22:35:22.028Z,16.10
2023-05-09T22:37:50.790Z,16.10
2023-05-09T22:40:19.196Z,16.10
2023-05-09T22:42:48.075Z,16.10
2023-05-09T22:45:16.356Z,16.10
2023-05-09T22:47:44.690Z,16.10
2023-05-09T22:50:13.935Z,16.10
2023-05-09T22:52:43.694Z,16.00
2023-05-09T22:55:12.152Z,16.00
2023-05-09T22:57:41.357Z,16.00
2023-05-09T23:00:10.773Z,16.00
2023-05-09T23:02:39.315Z,16.00
2023-05-09T23:05:08.821Z,16.00
2023-05-09T23:07:37.183Z,15.90
2023-05-09T23:10:07.454Z,15.90
2023-05-09T23:12:35.793Z,15.90
2023-05-09T23:15:04.111Z,15.90
2023-05-09T23:17:32.581Z,15.90
2023-05-09T23:20:01.676Z,15.90
2023-05-09T23:22:30.040Z,15.90
2023-05-09T23:24:59.695Z,15.90
2023-05-09T23:27:31.261Z,15.90
2023-05-09T23:29:59.629Z,15.90
2023-05-09T23:32:28.248Z,15.90
2023-05-09T23:34:56.607Z,16.00
2023-05-09T23:37:24.989Z,16.00
2023-05-09T23:39:53.296Z,16.00
2023-05-09T23:42:21.658Z,16.10
2023-05-09T23:44:51.414Z,16.10
2023-05-09T23:47:19.750Z,16.10
2023-05-09T23:49:48.029Z,16.10
2023-05-09T23:52:16.509Z,16.10
2023-05-09T23:54:44.837Z,16.00
2023-05-09T23:57:13.159Z,16.00
2023-05-09T23:59:42.185Z,16.00
